Plvs Vltra — ZGFL3 — position and weather

sailwx.info

Track history (hours):
 
Tides and Currents Weather Stations Pressure Air Temp Water Temp Dewpoint Dewpoint Depression Visibility Wind Speed Wind Dir Waves Ship Positions

Plvs Vltra

Last reported at 2018-Jan-30 20:36 UTC. Time now 2018-Feb-21 15:46 UTC.
Position S 36°50' E 174°45'.
Warning: this ship's position is 21 days out of date.

Length 74 m; draft 3.8 m.

Type: Pleasure craft. MMSI: 319091100.

Date/timePositionNaut miles runAvg speedWind from/ knotsBaromVisibWave heightAir tempDewpointWater temp
2018-Jan-30 20:36S 36°50' E 174°45'0 1.1
2018-Jan-30 20:14S 36°50' E 174°46'2 6.7
2018-Jan-30 20:00S 36°50' E 174°48'4 7.8
2018-Jan-30 19:30S 36°46' E 174°49'3 5.6
2018-Jan-30 19:00S 36°44' E 174°51'3 4.9
2018-Jan-30 18:29S 36°42' E 174°53'4 9.1
2018-Jan-30 18:00S 36°39' E 174°56'4 8.5
2018-Jan-30 17:29S 36°38' E 175°01'9 8.4
2018-Jan-30 16:24S 36°35' E 175°12'411.0
2018-Jan-30 16:00S 36°32' E 175°08'510.9
2018-Jan-30 15:30S 36°28' E 175°03'510.9
2018-Jan-30 15:00S 36°23' E 175°05'611.1
2018-Jan-30 14:28S 36°17' E 175°08'1311.1
2018-Jan-30 13:19S 36°05' E 175°12'  
Track history (hours):
 
Tides and Currents Weather Stations Pressure Air Temp Water Temp Dewpoint Dewpoint Depression Visibility Wind Speed Wind Dir Waves Ship Positions

Plvs Vltra

Last reported at 2018-Jan-30 20:36 UTC. Time now 2018-Feb-21 15:46 UTC.
Position S 36°50' E 174°45'.
Warning: this ship's position is 21 days out of date.

Length 74 m; draft 3.8 m.

Type: Pleasure craft. MMSI: 319091100.

Date/timePositionNaut miles runAvg speedWind from/ knotsBaromVisibWave heightAir tempDewpointWater temp
2018-Jan-30 20:36S 36°50' E 174°45'0 1.1
2018-Jan-30 20:14S 36°50' E 174°46'2 6.7
2018-Jan-30 20:00S 36°50' E 174°48'4 7.8
2018-Jan-30 19:30S 36°46' E 174°49'3 5.6
2018-Jan-30 19:00S 36°44' E 174°51'3 4.9
2018-Jan-30 18:29S 36°42' E 174°53'4 9.1
2018-Jan-30 18:00S 36°39' E 174°56'4 8.5
2018-Jan-30 17:29S 36°38' E 175°01'9 8.4
2018-Jan-30 16:24S 36°35' E 175°12'411.0
2018-Jan-30 16:00S 36°32' E 175°08'510.9
2018-Jan-30 15:30S 36°28' E 175°03'510.9
2018-Jan-30 15:00S 36°23' E 175°05'611.1
2018-Jan-30 14:28S 36°17' E 175°08'1311.1
2018-Jan-30 13:19S 36°05' E 175°12'  

Dump ship's entire track history